Time;durP1;ratioP1;P1;durP2;ratioP2;P2;SDS_P1;SDS_P2;PMS_P1;PMS_P2;Temp;Humidity;BMP_temperature;BMP_pressure;BME280_temperature;BME280_humidity;BME280_pressure;Samples;Min_cycle;Max_cycle;Signal;HPM_P1;HPM_P2
2023/02/13 00:02:03;;;;;;;14.10;10.70;;;;;;;7.41;97.18;103060.63;4993706;28;20236;-81
2023/02/13 00:04:30;;;;;;;15.33;10.73;;;;;;;7.41;97.53;103051.81;4994596;28;20222;-80
2023/02/13 00:06:56;;;;;;;13.23;10.83;;;;;;;7.38;97.79;103060.66;5000051;28;20203;-81
2023/02/13 00:09:24;;;;;;;14.30;10.87;;;;;;;7.39;98.12;103065.06;4996155;28;20212;-81
2023/02/13 00:11:50;;;;;;;14.83;11.00;;;;;;;7.37;98.13;103058.91;4993472;28;20204;-81
2023/02/13 00:14:17;;;;;;;13.40;10.20;;;;;;;7.39;97.83;103066.84;4993728;28;20211;-81
2023/02/13 00:16:43;;;;;;;17.20;11.80;;;;;;;7.39;97.38;103070.38;4991260;28;20219;-81
2023/02/13 00:19:10;;;;;;;19.90;12.47;;;;;;;7.38;97.43;103058.00;4994872;28;20219;-80
2023/02/13 00:21:36;;;;;;;16.70;11.47;;;;;;;7.39;97.72;103066.84;4986968;28;20212;-81
2023/02/13 00:24:03;;;;;;;16.20;11.93;;;;;;;7.40;98.12;103069.47;4990611;28;20230;-81
2023/02/13 00:26:30;;;;;;;21.00;12.50;;;;;;;7.39;98.26;103062.44;4993611;28;20215;-80
2023/02/13 00:28:58;;;;;;;20.43;12.03;;;;;;;7.40;97.77;103061.53;4995223;28;20215;-80
2023/02/13 00:31:24;;;;;;;15.30;11.53;;;;;;;7.40;97.98;103060.66;4993464;28;20204;-81
2023/02/13 00:33:51;;;;;;;12.60;10.33;;;;;;;7.40;98.44;103058.00;4994020;28;20216;-80
2023/02/13 00:36:19;;;;;;;16.07;11.33;;;;;;;7.40;98.41;103060.66;4991719;28;20235;-81
2023/02/13 00:38:47;;;;;;;12.23;10.23;;;;;;;7.38;97.77;103057.13;4986633;28;20676;-81
2023/02/13 00:41:16;;;;;;;19.23;11.43;;;;;;;7.39;98.32;103058.91;4999080;28;20212;-81
2023/02/13 00:43:44;;;;;;;21.00;12.70;;;;;;;7.37;98.42;103055.38;4991623;28;20246;-81
2023/02/13 00:46:10;;;;;;;20.57;12.77;;;;;;;7.35;97.70;103065.13;4994873;28;20203;-80
2023/02/13 00:48:37;;;;;;;17.70;11.43;;;;;;;7.34;97.75;103064.28;4996191;28;20295;-81
2023/02/13 00:51:05;;;;;;;14.67;10.97;;;;;;;7.33;98.29;103062.53;4996112;28;20211;-82
2023/02/13 00:53:32;;;;;;;16.47;11.37;;;;;;;7.33;98.42;103062.53;4991116;28;20228;-80
2023/02/13 00:55:59;;;;;;;17.13;11.57;;;;;;;7.30;98.24;103062.53;4996733;28;20212;-81
2023/02/13 00:58:25;;;;;;;14.17;9.93;;;;;;;7.29;98.69;103055.50;5001336;28;20215;-80
2023/02/13 01:00:54;;;;;;;15.53;11.23;;;;;;;7.29;98.11;103064.31;4996015;28;20667;-81
2023/02/13 01:03:21;;;;;;;16.33;11.03;;;;;;;7.27;98.40;103055.50;5000130;28;20230;-80
2023/02/13 01:05:48;;;;;;;17.30;10.87;;;;;;;7.26;98.01;103055.50;4999604;28;20234;-80
2023/02/13 01:08:16;;;;;;;16.10;10.80;;;;;;;7.26;98.60;103055.50;4997266;28;20207;-81
2023/02/13 01:10:45;;;;;;;15.97;10.33;;;;;;;7.23;98.61;103051.13;4997998;28;20210;-80
2023/02/13 01:13:13;;;;;;;18.00;10.57;;;;;;;7.23;98.70;103047.59;4995137;28;20231;-80
2023/02/13 01:15:40;;;;;;;16.03;10.47;;;;;;;7.21;98.01;103047.59;4997295;28;20231;-80
2023/02/13 01:18:08;;;;;;;18.00;11.17;;;;;;;7.20;98.66;103047.63;4998023;28;20215;-80
2023/02/13 01:20:34;;;;;;;16.70;11.60;;;;;;;7.19;98.96;103045.88;4995403;28;20218;-81
2023/02/13 01:23:00;;;;;;;14.83;11.33;;;;;;;7.19;98.32;103040.56;5004247;28;20228;-81
2023/02/13 01:25:29;;;;;;;18.33;10.37;;;;;;;7.19;99.18;103040.56;4994743;28;20295;-80
2023/02/13 01:27:55;;;;;;;16.03;11.23;;;;;;;7.17;98.38;103037.06;4996049;28;20219;-80
2023/02/13 01:30:22;;;;;;;16.33;11.00;;;;;;;7.16;99.37;103035.31;4996734;28;20219;-80
2023/02/13 01:32:48;;;;;;;15.00;11.03;;;;;;;7.14;99.37;103030.03;4997353;28;20227;-81
2023/02/13 01:35:16;;;;;;;13.57;10.00;;;;;;;7.15;99.11;103033.56;4993515;28;20219;-81
2023/02/13 01:37:43;;;;;;;15.10;9.80;;;;;;;7.14;99.09;103026.50;4995605;28;20211;-80
2023/02/13 01:40:13;;;;;;;13.33;9.47;;;;;;;7.14;99.45;103027.41;4997945;28;20214;-81
2023/02/13 01:42:40;;;;;;;13.43;9.67;;;;;;;7.14;99.07;103016.78;4995185;28;20236;-80
2023/02/13 01:45:18;;;;;;;14.13;9.73;;;;;;;7.15;99.04;103022.97;4995910;28;20211;-81
2023/02/13 01:47:49;;;;;;;12.47;8.70;;;;;;;7.13;99.37;103019.47;4992737;28;20207;-80
2023/02/13 01:50:21;;;;;;;11.77;8.87;;;;;;;7.14;99.44;103022.09;4988893;28;20207;-80
2023/02/13 01:52:51;;;;;;;11.27;8.30;;;;;;;7.14;99.16;103026.50;4996710;28;20219;-80
2023/02/13 01:55:18;;;;;;;12.07;8.93;;;;;;;7.14;99.04;103026.50;4992113;28;20204;-80
2023/02/13 01:57:51;;;;;;;11.23;8.93;;;;;;;7.12;99.43;103021.22;4991712;28;20207;-81
2023/02/13 02:00:18;;;;;;;13.67;9.20;;;;;;;7.12;99.80;103012.41;4989426;28;20211;-80
2023/02/13 02:02:50;;;;;;;12.47;9.20;;;;;;;7.10;99.72;103019.47;4997019;28;20621;-80
2023/02/13 02:05:18;;;;;;;13.40;8.93;;;;;;;7.08;99.71;103008.03;4994032;28;20203;-81
2023/02/13 02:07:46;;;;;;;14.60;9.50;;;;;;;7.07;99.47;103011.56;4998582;28;20203;-80
2023/02/13 02:10:17;;;;;;;15.60;9.70;;;;;;;7.06;100.00;103010.69;4991548;28;20212;-80
2023/02/13 02:12:47;;;;;;;13.13;9.03;;;;;;;7.06;99.91;103013.34;4985940;28;20226;-80
2023/02/13 02:15:14;;;;;;;13.67;9.70;;;;;;;7.04;99.93;103012.47;4995177;28;20628;-79
2023/02/13 02:17:40;;;;;;;11.60;8.83;;;;;;;7.04;100.00;103011.59;4994543;28;20208;-80
2023/02/13 02:20:20;;;;;;;15.27;9.43;;;;;;;7.05;100.00;103016.88;4998689;28;20215;-80
2023/02/13 02:23:20;;;;;;;13.90;8.93;;;;;;;7.06;100.00;103015.09;4996802;28;20231;-80
2023/02/13 02:26:15;;;;;;;15.23;9.20;;;;;;;7.06;99.99;103020.41;4995599;28;20211;-79
2023/02/13 02:29:01;;;;;;;13.67;9.23;;;;;;;7.04;99.64;103012.47;4996514;28;20195;-80
2023/02/13 02:32:00;;;;;;;16.07;9.47;;;;;;;7.05;99.67;103008.06;4994325;28;20210;-80
2023/02/13 02:34:36;;;;;;;16.43;8.67;;;;;;;7.03;99.91;103007.19;4989558;28;20195;-81
2023/02/13 02:37:14;;;;;;;15.77;9.70;;;;;;;7.03;99.94;103004.53;4988191;28;20723;-81
2023/02/13 02:39:55;;;;;;;15.00;10.00;;;;;;;7.03;100.00;103001.88;4991464;28;20203;-81
2023/02/13 02:42:34;;;;;;;12.17;9.23;;;;;;;7.04;100.00;103001.00;4996052;28;20232;-81
2023/02/13 02:45:06;;;;;;;11.60;7.83;;;;;;;7.03;100.00;102988.63;4985468;28;20212;-80
2023/02/13 02:50:35;;;;;;;15.33;9.70;;;;;;;7.01;100.00;102996.59;4986641;28;20271;-81
2023/02/13 02:53:13;;;;;;;18.17;10.50;;;;;;;7.00;100.00;102986.03;4992400;28;20228;-80
2023/02/13 02:55:46;;;;;;;23.13;12.60;;;;;;;6.99;99.90;102986.94;4994655;28;20871;-80
2023/02/13 03:06:46;;;;;;;18.40;11.17;;;;;;;6.92;100.00;102979.06;4994187;28;20215;-80
2023/02/13 03:14:46;;;;;;;13.43;8.40;;;;;;;6.91;100.00;102979.94;4994507;28;20210;-80
2023/02/13 03:23:07;;;;;;;11.23;7.33;;;;;;;6.91;100.00;102987.91;4989498;28;20362;-80
2023/02/13 03:25:39;;;;;;;12.93;7.50;;;;;;;6.90;100.00;102982.63;4995510;28;20199;-80
2023/02/13 03:31:06;;;;;;;14.87;8.50;;;;;;;6.86;100.00;102981.75;4993333;28;20296;-81
2023/02/13 03:33:49;;;;;;;12.33;8.67;;;;;;;6.84;100.00;102991.50;4995749;28;20219;-80
2023/02/13 03:39:16;;;;;;;13.47;8.10;;;;;;;6.83;100.00;102979.13;4990535;28;20214;-80
2023/02/13 03:41:48;;;;;;;13.47;8.20;;;;;;;6.81;100.00;102978.28;4993800;28;20196;-80
2023/02/13 03:44:20;;;;;;;11.97;7.33;;;;;;;6.81;100.00;102988.88;4992681;28;20226;-80
2023/02/13 03:46:49;;;;;;;11.87;7.57;;;;;;;6.80;100.00;102987.16;4996430;28;20212;-80
2023/02/13 03:52:10;;;;;;;11.17;6.10;;;;;;;6.80;100.00;102994.22;4990700;28;20301;-80
2023/02/13 04:00:16;;;;;;;13.23;7.30;;;;;;;6.79;100.00;102992.47;4996086;28;20226;-80
2023/02/13 04:02:52;;;;;;;12.00;7.07;;;;;;;6.79;100.00;102997.75;4998720;28;20239;-81
2023/02/13 04:05:22;;;;;;;10.43;7.53;;;;;;;6.77;100.00;102996.88;4999402;28;20207;-80
2023/02/13 04:07:49;;;;;;;12.00;7.33;;;;;;;6.77;100.00;102989.81;4996292;28;20207;-80
2023/02/13 04:10:17;;;;;;;8.93;6.37;;;;;;;6.76;100.00;102990.72;4997383;28;20219;-81
2023/02/13 04:12:52;;;;;;;8.73;5.73;;;;;;;6.77;100.00;102989.81;4988039;28;20231;-80
2023/02/13 04:15:25;;;;;;;8.63;5.33;;;;;;;6.79;100.00;102988.03;4992735;28;20287;-80
2023/02/13 04:17:55;;;;;;;7.80;5.17;;;;;;;6.80;100.00;102988.91;4996825;28;20211;-80
2023/02/13 04:20:22;;;;;;;9.27;4.90;;;;;;;6.80;100.00;102989.78;4993861;28;20656;-81
2023/02/13 04:22:49;;;;;;;8.20;4.60;;;;;;;6.81;100.00;102980.03;4995287;28;20243;-81
2023/02/13 04:25:18;;;;;;;9.70;5.10;;;;;;;6.82;100.00;102980.03;4992700;28;20215;-81
2023/02/13 04:27:45;;;;;;;6.93;4.53;;;;;;;6.85;100.00;102981.78;4987458;28;20200;-80
2023/02/13 04:30:12;;;;;;;8.17;4.60;;;;;;;6.86;100.00;102988.81;4998440;28;20207;-80
2023/02/13 04:32:39;;;;;;;8.60;4.83;;;;;;;6.85;100.00;102977.34;4998102;28;20590;-80
2023/02/13 04:35:06;;;;;;;6.57;4.40;;;;;;;6.85;100.00;102984.41;4995312;28;20209;-81
2023/02/13 04:37:32;;;;;;;7.23;4.40;;;;;;;6.87;100.00;102980.88;4989727;28;20687;-80
2023/02/13 04:40:00;;;;;;;8.63;4.60;;;;;;;6.87;100.00;102980.88;4994924;28;20214;-81
2023/02/13 04:42:26;;;;;;;6.33;4.10;;;;;;;6.88;100.00;102977.31;4991654;28;20656;-81
2023/02/13 04:44:53;;;;;;;6.97;3.57;;;;;;;6.89;100.00;102972.91;4992242;28;20714;-80
2023/02/13 04:47:19;;;;;;;6.40;4.20;;;;;;;6.91;100.00;102965.81;4989056;28;20210;-80
2023/02/13 04:49:46;;;;;;;6.30;4.03;;;;;;;6.91;100.00;102969.34;4996847;28;20204;-80
2023/02/13 04:52:14;;;;;;;7.13;4.03;;;;;;;6.89;100.00;102971.13;4996099;28;20271;-80
2023/02/13 04:54:40;;;;;;;6.23;4.23;;;;;;;6.87;100.00;102959.69;4989450;28;20719;-80
2023/02/13 04:57:08;;;;;;;5.57;3.90;;;;;;;6.86;99.34;102962.34;5004308;28;20203;-80
2023/02/13 04:59:34;;;;;;;4.80;3.37;;;;;;;6.85;99.80;102964.13;4994762;28;20231;-80
2023/02/13 05:02:01;;;;;;;5.90;3.63;;;;;;;6.86;99.55;102959.69;4994139;28;20222;-80
2023/02/13 05:04:28;;;;;;;5.43;3.23;;;;;;;6.85;99.28;102966.75;4992944;28;20234;-79
2023/02/13 05:06:54;;;;;;;6.23;3.33;;;;;;;6.85;99.65;102963.22;4993863;28;20224;-80
2023/02/13 05:09:21;;;;;;;5.83;3.87;;;;;;;6.87;98.53;102964.97;4992196;28;20199;-80
2023/02/13 05:11:47;;;;;;;4.83;3.27;;;;;;;6.86;98.74;102965.88;4991086;28;20226;-80
2023/02/13 05:14:15;;;;;;;5.50;3.20;;;;;;;6.87;98.45;102961.44;4990127;28;20223;-81
2023/02/13 05:16:41;;;;;;;4.37;2.60;;;;;;;6.87;97.92;102961.44;4988625;28;20683;-81
2023/02/13 05:19:08;;;;;;;3.67;2.50;;;;;;;6.85;97.78;102972.06;4986692;28;20211;-80
2023/02/13 05:24:21;;;;;;;3.87;2.80;;;;;;;6.83;98.08;102976.50;4986593;28;20222;-81
2023/02/13 05:26:47;;;;;;;3.10;2.10;;;;;;;6.81;97.77;102975.63;4987080;28;20205;-81
2023/02/13 05:29:18;;;;;;;5.43;3.40;;;;;;;6.82;97.57;102971.22;4984707;28;20226;-81
2023/02/13 05:31:44;;;;;;;3.07;2.27;;;;;;;6.81;97.36;102978.28;4990235;28;20196;-81
2023/02/13 05:34:11;;;;;;;4.83;2.50;;;;;;;6.82;97.26;102982.69;4990448;28;20215;-80
2023/02/13 05:36:38;;;;;;;3.83;2.47;;;;;;;6.81;97.35;102980.91;4986951;28;20218;-81
2023/02/13 05:39:05;;;;;;;4.03;2.30;;;;;;;6.82;96.71;102977.38;4993496;28;20231;-80
2023/02/13 05:41:32;;;;;;;4.13;2.37;;;;;;;6.83;97.15;102978.25;4989949;28;20231;-80
2023/02/13 05:43:58;;;;;;;2.97;2.10;;;;;;;6.83;96.45;102978.25;4988798;28;20251;-80
2023/02/13 05:46:26;;;;;;;3.20;1.77;;;;;;;6.83;96.67;102976.50;4990745;28;20655;-80
2023/02/13 05:48:53;;;;;;;3.23;2.10;;;;;;;6.82;96.16;102987.09;4991854;28;20378;-81
2023/02/13 05:51:20;;;;;;;3.20;1.60;;;;;;;6.82;96.17;102982.69;4987025;28;20200;-80
2023/02/13 05:53:46;;;;;;;2.27;1.50;;;;;;;6.81;96.63;102983.56;4986905;28;20716;-80
2023/02/13 05:56:13;;;;;;;1.83;1.30;;;;;;;6.81;96.32;102991.50;4993023;28;20208;-80
2023/02/13 05:58:39;;;;;;;1.90;1.40;;;;;;;6.80;95.91;102983.63;4992661;28;20204;-81
2023/02/13 06:01:06;;;;;;;2.93;1.50;;;;;;;6.81;95.34;102988.00;4998499;28;20230;-81
2023/02/13 06:03:34;;;;;;;3.30;1.60;;;;;;;6.81;96.04;102991.50;4995500;28;20247;-82
2023/02/13 06:06:01;;;;;;;1.57;1.17;;;;;;;6.80;95.77;102989.78;4993299;28;20215;-80
2023/02/13 06:08:27;;;;;;;1.70;1.20;;;;;;;6.80;95.67;102988.91;4991679;28;20836;-81
2023/02/13 06:10:54;;;;;;;1.80;0.93;;;;;;;6.80;95.17;102996.84;4990371;28;20211;-80
2023/02/13 06:13:20;;;;;;;1.80;1.10;;;;;;;6.80;95.08;102995.09;4993857;28;20228;-80
2023/02/13 06:15:47;;;;;;;2.03;1.50;;;;;;;6.79;95.01;103006.56;4999250;28;20207;-80
2023/02/13 06:18:13;;;;;;;2.73;1.23;;;;;;;6.80;94.73;103010.09;4991901;28;20199;-81
2023/02/13 06:20:41;;;;;;;2.00;1.30;;;;;;;6.81;94.96;103006.53;4990139;28;20215;-81
2023/02/13 06:23:08;;;;;;;2.05;1.10;;;;;;;6.80;94.76;103008.34;4994600;28;20223;-80
2023/02/13 06:25:34;;;;;;;1.80;1.20;;;;;;;6.81;94.84;103015.34;4994869;28;20206;-81
2023/02/13 06:28:01;;;;;;;1.40;1.20;;;;;;;6.79;93.89;103003.94;4993430;28;20215;-81
2023/02/13 06:30:28;;;;;;;2.03;1.40;;;;;;;6.79;94.50;103003.94;4997600;28;20207;-80
2023/02/13 06:32:54;;;;;;;1.87;1.40;;;;;;;6.80;93.86;103005.69;4991910;28;20227;-79
2023/02/13 06:35:21;;;;;;;1.87;1.10;;;;;;;6.81;93.84;103010.06;4994985;28;20199;-81
2023/02/13 06:37:48;;;;;;;1.60;0.97;;;;;;;6.81;93.49;103004.75;4995253;28;20231;-80
2023/02/13 06:40:16;;;;;;;1.57;1.07;;;;;;;6.81;94.12;103017.13;4993202;28;20238;-84
2023/02/13 06:42:42;;;;;;;2.13;1.00;;;;;;;6.82;93.36;103005.63;4993520;28;20231;-83
2023/02/13 06:45:10;;;;;;;1.40;0.90;;;;;;;6.81;93.09;103007.41;4999632;28;20251;-83
2023/02/13 06:47:40;;;;;;;1.80;1.17;;;;;;;6.82;93.28;103011.81;4985069;28;20211;-83
2023/02/13 06:50:07;;;;;;;1.40;1.03;;;;;;;6.81;92.84;103009.19;4990808;28;20448;-83
2023/02/13 06:52:34;;;;;;;1.63;0.97;;;;;;;6.80;92.77;103020.69;4995868;28;20238;-83
2023/02/13 06:55:02;;;;;;;1.57;1.20;;;;;;;6.78;93.32;103023.34;4992592;28;20204;-82
2023/02/13 06:57:31;;;;;;;1.30;1.10;;;;;;;6.78;93.08;103017.19;4992983;28;20254;-83
2023/02/13 06:59:58;;;;;;;2.20;1.30;;;;;;;6.78;92.97;103023.34;4992508;28;20227;-82
2023/02/13 07:02:24;;;;;;;1.93;1.40;;;;;;;6.79;93.49;103026.88;4992731;28;20235;-84
2023/02/13 07:04:51;;;;;;;2.60;1.37;;;;;;;6.80;93.37;103037.47;4986310;28;20349;-83
2023/02/13 07:07:17;;;;;;;3.37;1.70;;;;;;;6.81;93.01;103038.31;4996678;28;20200;-83
2023/02/13 07:09:44;;;;;;;3.43;2.17;;;;;;;6.80;92.92;103039.25;4995020;28;20200;-83
2023/02/13 07:12:11;;;;;;;3.60;2.30;;;;;;;6.81;92.85;103030.38;4981468;28;20204;-83
2023/02/13 07:14:38;;;;;;;3.40;1.90;;;;;;;6.78;93.12;103031.31;4991852;28;20204;-83
2023/02/13 07:17:04;;;;;;;2.97;1.73;;;;;;;6.80;93.21;103028.66;4991676;28;20204;-84
2023/02/13 07:19:32;;;;;;;1.97;1.60;;;;;;;6.79;92.86;103025.13;4989563;28;20211;-83
2023/02/13 07:21:58;;;;;;;2.40;1.70;;;;;;;6.80;93.41;103034.81;4989869;28;20779;-83
2023/02/13 07:24:25;;;;;;;2.40;1.53;;;;;;;6.81;93.18;103038.31;4996471;28;20229;-83
2023/02/13 07:26:51;;;;;;;2.57;1.40;;;;;;;6.82;93.56;103040.06;4992599;28;20234;-84
2023/02/13 07:29:19;;;;;;;3.30;1.57;;;;;;;6.83;93.34;103036.53;4993564;28;20208;-82
2023/02/13 07:31:45;;;;;;;3.17;1.77;;;;;;;6.83;93.27;103042.72;4990788;28;20203;-84
2023/02/13 07:34:12;;;;;;;2.60;1.77;;;;;;;6.85;93.24;103042.69;4986584;28;20227;-82
2023/02/13 07:36:38;;;;;;;3.60;1.70;;;;;;;6.83;94.22;103040.06;4984759;28;20689;-83
2023/02/13 07:39:05;;;;;;;4.10;2.10;;;;;;;6.86;93.29;103063.00;4997253;28;20207;-84
2023/02/13 07:41:31;;;;;;;4.90;2.33;;;;;;;6.83;94.58;103055.06;4984338;28;20208;-83
2023/02/13 07:43:57;;;;;;;3.50;2.20;;;;;;;6.85;93.50;103062.13;4991175;28;20231;-83
2023/02/13 07:46:25;;;;;;;4.10;2.53;;;;;;;6.85;94.04;103066.53;4988906;28;20205;-82
2023/02/13 07:48:52;;;;;;;2.83;2.07;;;;;;;6.85;94.08;103063.88;4992855;28;20199;-83
2023/02/13 07:51:18;;;;;;;4.77;2.60;;;;;;;6.85;94.09;103059.47;5000846;28;20210;-83
2023/02/13 07:53:45;;;;;;;5.00;2.83;;;;;;;6.87;94.08;103067.41;4993904;28;20219;-83
2023/02/13 07:56:12;;;;;;;4.00;2.67;;;;;;;6.84;94.34;103068.31;4993707;28;20211;-84
2023/02/13 07:58:39;;;;;;;4.43;2.73;;;;;;;6.84;94.14;103070.94;4991942;28;20239;-83
2023/02/13 08:01:07;;;;;;;4.10;3.00;;;;;;;6.84;94.58;103064.78;4989301;28;20601;-83
2023/02/13 08:03:35;;;;;;;5.07;3.63;;;;;;;6.84;94.34;103065.66;4985016;28;20228;-82
2023/02/13 08:06:03;;;;;;;4.57;3.13;;;;;;;6.84;95.01;103068.31;4988103;28;20227;-83
2023/02/13 08:08:29;;;;;;;4.40;3.17;;;;;;;6.84;95.11;103075.38;4992528;28;20211;-83
2023/02/13 08:13:42;;;;;;;5.97;3.83;;;;;;;6.87;94.91;103085.94;4990552;28;20234;-84
2023/02/13 08:16:08;;;;;;;6.33;3.70;;;;;;;6.88;95.28;103085.06;4986246;28;20208;-84
2023/02/13 08:18:36;;;;;;;5.13;3.93;;;;;;;6.86;95.58;103082.41;4990228;28;20203;-83
2023/02/13 08:21:03;;;;;;;6.13;4.00;;;;;;;6.87;95.59;103085.94;4993760;28;20208;-83
2023/02/13 08:23:29;;;;;;;5.87;3.70;;;;;;;6.91;95.86;103088.56;4992483;28;20227;-84
2023/02/13 08:25:59;;;;;;;5.07;3.57;;;;;;;6.89;96.44;103081.50;4995690;28;20639;-83
2023/02/13 08:28:26;;;;;;;7.03;4.23;;;;;;;6.88;96.48;103082.41;4994562;28;20706;-84
2023/02/13 08:30:52;;;;;;;4.70;3.90;;;;;;;6.87;96.60;103078.00;4997845;28;20210;-83
2023/02/13 08:33:19;;;;;;;6.30;3.97;;;;;;;6.89;97.26;103086.81;4991117;28;20569;-84
2023/02/13 08:35:47;;;;;;;5.67;4.50;;;;;;;6.90;97.45;103081.50;4994218;28;20206;-82
2023/02/13 08:38:14;;;;;;;5.10;4.27;;;;;;;6.89;97.42;103079.75;4994903;28;20365;-83
2023/02/13 08:40:40;;;;;;;5.80;4.30;;;;;;;6.92;97.73;103084.13;4994931;28;20219;-84
2023/02/13 08:43:07;;;;;;;6.17;4.37;;;;;;;6.91;97.78;103075.31;4989366;28;20622;-83
2023/02/13 08:45:36;;;;;;;5.70;4.33;;;;;;;6.94;97.32;103079.72;4997032;28;20231;-82
2023/02/13 08:48:03;;;;;;;6.90;5.00;;;;;;;6.95;97.79;103074.41;4993960;28;20577;-82
2023/02/13 08:50:30;;;;;;;5.57;3.90;;;;;;;6.99;97.71;103066.44;5000447;28;20203;-82
2023/02/13 08:52:59;;;;;;;7.10;4.77;;;;;;;6.99;98.12;103074.38;4994266;28;20227;-83
2023/02/13 08:55:27;;;;;;;8.30;5.87;;;;;;;6.99;97.41;103069.06;4991131;28;20262;-84
2023/02/13 08:57:53;;;;;;;8.67;6.80;;;;;;;7.00;97.36;103065.50;4999908;28;20227;-84
2023/02/13 09:00:20;;;;;;;5.50;4.80;;;;;;;7.02;97.25;103072.53;4995389;28;20218;-84
2023/02/13 09:02:47;;;;;;;5.97;4.33;;;;;;;7.04;97.45;103073.41;4998395;28;20227;-84
2023/02/13 09:05:14;;;;;;;5.77;4.10;;;;;;;7.04;97.60;103068.13;4998885;28;20741;-85
2023/02/13 09:07:40;;;;;;;4.30;3.30;;;;;;;7.07;97.59;103070.75;4996131;28;20228;-84
2023/02/13 09:10:09;;;;;;;4.93;4.03;;;;;;;7.07;97.48;103084.00;4997438;28;20215;-83
2023/02/13 09:12:35;;;;;;;7.20;5.03;;;;;;;7.10;97.75;103072.47;4992475;28;20620;-84
2023/02/13 09:15:02;;;;;;;5.23;4.30;;;;;;;7.12;97.25;103070.69;5004993;28;20203;-84
2023/02/13 09:17:31;;;;;;;4.97;3.70;;;;;;;7.15;97.23;103070.66;5000541;28;20203;-83
2023/02/13 09:19:57;;;;;;;3.77;3.17;;;;;;;7.19;96.66;103077.66;4998190;28;20207;-84
2023/02/13 09:22:24;;;;;;;4.07;3.57;;;;;;;7.21;96.41;103076.75;5000934;28;20310;-84
2023/02/13 09:24:50;;;;;;;4.90;3.30;;;;;;;7.22;96.22;103067.03;4993010;28;20602;-85
2023/02/13 09:27:18;;;;;;;4.63;2.80;;;;;;;7.22;96.58;103070.56;4989368;28;20206;-83
2023/02/13 09:29:45;;;;;;;4.20;3.00;;;;;;;7.25;96.02;103067.00;4995934;28;20207;-84
2023/02/13 09:32:11;;;;;;;4.40;3.33;;;;;;;7.21;95.73;103067.94;5001830;28;20212;-84
2023/02/13 09:34:37;;;;;;;4.43;3.17;;;;;;;7.23;95.50;103060.84;5005734;28;20210;-84
2023/02/13 09:37:04;;;;;;;3.87;3.17;;;;;;;7.24;94.55;103071.44;5007847;28;20211;-85
2023/02/13 09:39:30;;;;;;;4.10;2.87;;;;;;;7.25;94.73;103061.72;4993205;28;20211;-84
2023/02/13 09:42:00;;;;;;;4.17;3.20;;;;;;;7.28;94.85;103065.22;5002810;28;20203;-85
2023/02/13 09:44:33;;;;;;;3.90;3.37;;;;;;;7.31;94.88;103064.31;4995421;28;20196;-85
2023/02/13 09:47:04;;;;;;;3.87;3.00;;;;;;;7.34;94.52;103064.28;5000278;28;20246;-84
2023/02/13 09:49:33;;;;;;;3.80;2.57;;;;;;;7.38;94.02;103068.63;4999329;28;20199;-84
2023/02/13 09:52:00;;;;;;;4.00;2.70;;;;;;;7.42;94.31;103062.41;5002725;28;20219;-85
2023/02/13 09:54:30;;;;;;;4.10;2.97;;;;;;;7.48;94.12;103064.09;4999259;28;20634;-85
2023/02/13 09:57:00;;;;;;;3.80;2.67;;;;;;;7.51;93.91;103064.94;4993610;28;20212;-85
2023/02/13 09:59:42;;;;;;;5.07;3.00;;;;;;;7.55;93.77;103069.28;4993980;28;20199;-85
2023/02/13 10:02:24;;;;;;;3.90;2.97;;;;;;;7.60;93.04;103069.25;4994398;28;20223;-84
2023/02/13 10:05:01;;;;;;;4.90;2.60;;;;;;;7.64;92.67;103070.97;5000162;28;20624;-85
2023/02/13 10:07:37;;;;;;;3.10;2.03;;;;;;;7.65;92.68;103068.31;4997443;28;20211;-83
2023/02/13 10:10:17;;;;;;;3.07;2.30;;;;;;;7.67;92.25;103068.28;4991897;28;20215;-84
2023/02/13 10:12:56;;;;;;;3.13;2.27;;;;;;;7.73;92.21;103067.31;4997883;28;20255;-85
2023/02/13 10:15:31;;;;;;;2.80;1.97;;;;;;;7.74;91.76;103075.25;4999901;28;20196;-85
2023/02/13 10:18:03;;;;;;;3.33;2.43;;;;;;;7.76;90.83;103068.16;4990314;28;20206;-83
2023/02/13 10:20:35;;;;;;;3.13;2.10;;;;;;;7.78;91.26;103068.13;4996005;28;20203;-84
2023/02/13 10:23:16;;;;;;;3.60;2.23;;;;;;;7.83;90.13;103071.63;5003187;28;20257;-84
2023/02/13 10:25:49;;;;;;;2.57;2.23;;;;;;;7.83;90.21;103075.16;4993505;28;20242;-85
2023/02/13 10:28:22;;;;;;;2.47;1.60;;;;;;;7.83;89.66;103076.91;4994071;28;20208;-83
2023/02/13 10:30:54;;;;;;;2.20;2.00;;;;;;;7.84;88.92;103083.97;5001046;28;20203;-85
2023/02/13 10:33:26;;;;;;;2.23;1.70;;;;;;;7.85;89.56;103080.44;5005335;28;20249;-85
2023/02/13 10:36:00;;;;;;;3.57;1.70;;;;;;;7.90;88.52;103078.56;4999912;28;20634;-85
2023/02/13 10:38:30;;;;;;;3.13;2.60;;;;;;;7.93;87.94;103081.19;4988754;28;20201;-85
2023/02/13 10:41:06;;;;;;;4.83;2.80;;;;;;;7.98;88.08;103076.72;4988100;28;20226;-84
2023/02/13 10:43:40;;;;;;;5.53;2.60;;;;;;;8.01;86.97;103079.31;4987168;28;20231;-84
2023/02/13 10:46:22;;;;;;;3.73;2.43;;;;;;;8.03;86.55;103080.19;4998906;28;20260;-85
2023/02/13 10:49:03;;;;;;;5.90;3.67;;;;;;;8.05;87.21;103072.19;4990853;28;20211;-85
2023/02/13 10:51:34;;;;;;;4.10;2.40;;;;;;;8.08;87.50;103075.66;4987139;28;20206;-88
2023/02/13 10:54:35;;;;;;;4.73;3.07;;;;;;;8.11;87.05;103072.09;4995538;28;20303;-85
2023/02/13 10:57:13;;;;;;;3.73;2.83;;;;;;;8.15;86.63;103077.34;4988694;28;20203;-85
2023/02/13 10:59:53;;;;;;;5.00;3.13;;;;;;;8.20;86.56;103070.19;4989367;28;20212;-84
2023/02/13 11:02:26;;;;;;;3.93;2.67;;;;;;;8.23;85.56;103072.81;4990983;28;20245;-85
2023/02/13 11:04:57;;;;;;;4.37;2.27;;;;;;;8.26;85.65;103069.19;4992013;28;20204;-86
2023/02/13 11:07:26;;;;;;;2.83;2.50;;;;;;;8.28;85.87;103070.06;4985958;28;20196;-84
2023/02/13 11:09:58;;;;;;;4.73;2.50;;;;;;;8.28;85.72;103073.59;4987807;28;22056;-85
2023/02/13 11:12:26;;;;;;;3.03;2.10;;;;;;;8.29;85.54;103064.72;4981744;28;20224;-84
2023/02/13 11:14:55;;;;;;;3.53;1.97;;;;;;;8.29;84.45;103063.84;4980347;28;20267;-84
2023/02/13 11:17:25;;;;;;;2.30;1.67;;;;;;;8.32;84.71;103061.19;4981890;28;20207;-84
2023/02/13 11:19:53;;;;;;;1.90;1.67;;;;;;;8.35;84.54;103056.72;4984650;28;20277;-84
2023/02/13 11:22:30;;;;;;;2.90;1.80;;;;;;;8.39;84.83;103051.34;4989415;28;20231;-84
2023/02/13 11:25:00;;;;;;;4.63;1.97;;;;;;;8.41;84.77;103052.22;4990259;28;20210;-85
2023/02/13 11:27:31;;;;;;;3.57;1.70;;;;;;;8.44;84.13;103052.13;4988755;28;20212;-84
2023/02/13 11:30:00;;;;;;;3.17;1.30;;;;;;;8.46;84.21;103053.00;4991274;28;20218;-85
2023/02/13 11:32:30;;;;;;;2.90;1.40;;;;;;;8.45;83.91;103053.91;4983727;28;20223;-85
2023/02/13 11:34:59;;;;;;;1.40;1.00;;;;;;;8.49;83.24;103047.63;4986515;28;20689;-85
2023/02/13 11:37:28;;;;;;;2.03;1.50;;;;;;;8.53;83.18;103052.00;5000952;28;20226;-85
2023/02/13 11:39:55;;;;;;;1.60;1.13;;;;;;;8.56;83.02;103050.19;4993978;28;20215;-84
2023/02/13 11:42:27;;;;;;;1.83;1.40;;;;;;;8.59;82.90;103052.78;4994223;28;20223;-84
2023/02/13 11:44:58;;;;;;;1.10;1.00;;;;;;;8.61;82.14;103052.72;4983771;28;20208;-83
2023/02/13 11:47:39;;;;;;;1.83;1.27;;;;;;;8.61;81.72;103050.06;4985622;28;20211;-84
2023/02/13 11:50:22;;;;;;;2.17;1.37;;;;;;;8.57;81.83;103046.63;4990108;28;20234;-84
2023/02/13 11:52:55;;;;;;;1.70;1.13;;;;;;;8.61;81.61;103040.34;4991102;28;20614;-84
2023/02/13 11:55:29;;;;;;;2.80;1.40;;;;;;;8.65;80.54;103041.16;4989620;28;20200;-84
2023/02/13 11:57:57;;;;;;;1.60;1.30;;;;;;;8.66;80.79;103029.63;4992721;28;20211;-83
2023/02/13 12:00:34;;;;;;;2.07;1.30;;;;;;;8.68;80.10;103027.84;4989643;28;20211;-84
2023/02/13 12:03:01;;;;;;;1.60;1.47;;;;;;;8.69;80.54;103034.91;4992261;28;21473;-84
2023/02/13 12:05:28;;;;;;;2.07;1.50;;;;;;;8.70;80.65;103034.00;4994800;28;20707;-85
2023/02/13 12:07:59;;;;;;;2.30;1.43;;;;;;;8.72;80.40;103028.66;4996512;28;20216;-85
2023/02/13 12:10:27;;;;;;;1.90;1.60;;;;;;;8.75;80.00;103028.59;4991786;28;20720;-85
2023/02/13 12:12:55;;;;;;;2.00;1.80;;;;;;;8.75;79.48;103029.50;4990957;28;20230;-85
2023/02/13 12:15:25;;;;;;;2.03;1.30;;;;;;;8.73;79.72;103031.28;4998893;28;20223;-85
2023/02/13 12:18:03;;;;;;;1.90;1.60;;;;;;;8.70;79.27;103026.03;4994357;28;20201;-85
2023/02/13 12:20:40;;;;;;;1.63;1.33;;;;;;;8.69;79.40;103024.28;4994477;28;20200;-84
2023/02/13 12:23:16;;;;;;;1.80;1.30;;;;;;;8.70;80.13;103018.94;4991776;28;20234;-84